Time;durP1;ratioP1;P1;durP2;ratioP2;P2;SDS_P1;SDS_P2;PMS_P1;PMS_P2;Temp;Humidity;BMP_temperature;BMP_pressure;BME280_temperature;BME280_humidity;BME280_pressure;Samples;Min_cycle;Max_cycle;Signal;HPM_P1;HPM_P2
2022/02/08 00:01:15;;;;;;;0.60;0.60;;;;;;;;;;5074389;28;20737;-63
2022/02/08 00:03:42;;;;;;;0.60;0.60;;;;;;;;;;5074570;28;20573;-62
2022/02/08 00:08:40;;;;;;;0.55;0.55;;;;;;;;;;5074831;28;20171;-62
2022/02/08 00:11:06;;;;;;;0.60;0.60;;;;;;;;;;5074252;28;20194;-62
2022/02/08 00:13:32;;;;;;;0.60;0.60;;;;;;;;;;5074560;28;20455;-62
2022/02/08 00:15:58;;;;;;;0.60;0.60;;;;;;;;;;5074422;28;20188;-62
2022/02/08 00:18:24;;;;;;;0.50;0.50;;;;;;;;;;5074313;28;20179;-62
2022/02/08 00:20:50;;;;;;;0.60;0.60;;;;;;;;;;5074033;28;20408;-62
2022/02/08 00:23:16;;;;;;;0.60;0.60;;;;;;;;;;5074151;28;20566;-62
2022/02/08 00:25:42;;;;;;;0.60;0.60;;;;;;;;;;5074278;28;20406;-62
2022/02/08 00:28:08;;;;;;;0.63;0.63;;;;;;;;;;5074251;28;20398;-62
2022/02/08 00:30:34;;;;;;;0.60;0.60;;;;;;;;;;5055874;28;20420;-62
2022/02/08 00:33:00;;;;;;;0.60;0.60;;;;;;;;;;5074340;28;20182;-62
2022/02/08 00:35:26;;;;;;;0.60;0.60;;;;;;;;;;5073659;28;20665;-62
2022/02/08 00:37:51;;;;;;;0.60;0.60;;;;;;;;;;5073711;28;20805;-62
2022/02/08 00:40:19;;;;;;;0.60;0.60;;;;;;;;;;5073691;28;20206;-62
2022/02/08 00:42:45;;;;;;;0.60;0.60;;;;;;;;;;5073905;28;20449;-62
2022/02/08 00:47:44;;;;;;;0.60;0.60;;;;;;;;;;5074086;28;20198;-62
2022/02/08 00:50:11;;;;;;;0.60;0.60;;;;;;;;;;5073618;28;20254;-62
2022/02/08 00:52:38;;;;;;;0.60;0.60;;;;;;;;;;5073684;28;20286;-62
2022/02/08 00:55:05;;;;;;;0.60;0.60;;;;;;;;;;5073701;28;20171;-62
2022/02/08 00:57:31;;;;;;;0.60;0.60;;;;;;;;;;5073624;28;20174;-62
2022/02/08 00:59:57;;;;;;;0.60;0.60;;;;;;;;;;5073528;28;20164;-62
2022/02/08 01:02:23;;;;;;;0.60;0.60;;;;;;;;;;5055299;28;20214;-62
2022/02/08 01:04:56;;;;;;;0.50;0.50;;;;;;;;;;5073389;28;20179;-62
2022/02/08 01:07:23;;;;;;;0.60;0.60;;;;;;;;;;5073477;28;20174;-62
2022/02/08 01:09:58;;;;;;;0.60;0.60;;;;;;;;;;5055362;28;20181;-62
2022/02/08 01:12:25;;;;;;;0.70;0.70;;;;;;;;;;5055104;28;20190;-62
2022/02/08 01:14:53;;;;;;;0.50;0.50;;;;;;;;;;5073313;28;20250;-62
2022/02/08 01:17:21;;;;;;;0.60;0.60;;;;;;;;;;5073170;28;20183;-62
2022/02/08 01:20:00;;;;;;;0.60;0.60;;;;;;;;;;5073295;28;20627;-62
2022/02/08 01:22:26;;;;;;;0.50;0.50;;;;;;;;;;5072780;28;20771;-62
2022/02/08 01:24:52;;;;;;;0.50;0.50;;;;;;;;;;5073020;28;20250;-62
2022/02/08 01:27:23;;;;;;;0.50;0.50;;;;;;;;;;5073082;28;20206;-63
2022/02/08 01:37:49;;;;;;;0.50;0.50;;;;;;;;;;5073308;28;20730;-62
2022/02/08 01:45:56;;;;;;;0.60;0.60;;;;;;;;;;5073121;28;20190;-62
2022/02/08 01:51:07;;;;;;;0.60;0.60;;;;;;;;;;5071642;28;20226;-60
2022/02/08 01:53:33;;;;;;;0.50;0.50;;;;;;;;;;5072637;28;20650;-62
2022/02/08 01:55:59;;;;;;;0.60;0.60;;;;;;;;;;5072473;28;20220;-62
2022/02/08 01:58:25;;;;;;;0.60;0.60;;;;;;;;;;5072344;28;20235;-62
2022/02/08 02:00:51;;;;;;;0.60;0.60;;;;;;;;;;5072103;28;20168;-62
2022/02/08 02:03:17;;;;;;;0.60;0.60;;;;;;;;;;5072278;28;20461;-62
2022/02/08 02:05:43;;;;;;;0.50;0.50;;;;;;;;;;5072423;28;20413;-62
2022/02/08 02:08:09;;;;;;;0.60;0.60;;;;;;;;;;5072203;28;20402;-60
2022/02/08 02:10:37;;;;;;;0.50;0.50;;;;;;;;;;5071966;28;20179;-63
2022/02/08 02:13:05;;;;;;;0.57;0.57;;;;;;;;;;5072112;28;20432;-62
2022/02/08 02:15:32;;;;;;;0.60;0.60;;;;;;;;;;5072453;28;20190;-62
2022/02/08 02:17:58;;;;;;;0.60;0.60;;;;;;;;;;5072237;28;20177;-62
2022/02/08 02:20:25;;;;;;;0.52;0.52;;;;;;;;;;5071866;28;20174;-62
2022/02/08 02:22:51;;;;;;;0.52;0.52;;;;;;;;;;5071836;28;20207;-62
2022/02/08 02:25:21;;;;;;;0.60;0.60;;;;;;;;;;5072008;28;20171;-62
2022/02/08 02:27:48;;;;;;;0.45;0.45;;;;;;;;;;5071947;28;20414;-63
2022/02/08 02:30:15;;;;;;;0.60;0.60;;;;;;;;;;5071576;28;20175;-62
2022/02/08 02:32:40;;;;;;;0.50;0.50;;;;;;;;;;5072198;28;20195;-61
2022/02/08 02:35:07;;;;;;;0.60;0.60;;;;;;;;;;5071888;28;20687;-61
2022/02/08 02:37:33;;;;;;;0.60;0.60;;;;;;;;;;5071803;28;20927;-62
2022/02/08 02:39:58;;;;;;;0.47;0.47;;;;;;;;;;5071927;28;20171;-62
2022/02/08 02:42:26;;;;;;;0.60;0.60;;;;;;;;;;5071539;28;20425;-61
2022/02/08 02:44:52;;;;;;;0.50;0.50;;;;;;;;;;5071700;28;20428;-62
2022/02/08 02:47:18;;;;;;;0.60;0.60;;;;;;;;;;5071706;28;20179;-62
2022/02/08 02:49:44;;;;;;;0.50;0.50;;;;;;;;;;5071763;28;20638;-62
2022/02/08 02:52:10;;;;;;;0.50;0.50;;;;;;;;;;5071194;28;20208;-62
2022/02/08 02:54:37;;;;;;;0.50;0.50;;;;;;;;;;5071695;28;20182;-62
2022/02/08 02:57:03;;;;;;;0.50;0.50;;;;;;;;;;5053528;28;20414;-62
2022/02/08 02:59:31;;;;;;;0.60;0.60;;;;;;;;;;5071541;28;20172;-62
2022/02/08 03:20:47;;;;;;;0.60;0.60;;;;;;;;;;5071112;28;20525;-62
2022/02/08 03:23:17;;;;;;;0.60;0.60;;;;;;;;;;5071292;28;20205;-62
2022/02/08 03:25:43;;;;;;;0.50;0.50;;;;;;;;;;5071854;28;20536;-60
2022/02/08 03:28:09;;;;;;;0.52;0.52;;;;;;;;;;5071347;28;20202;-66
2022/02/08 03:30:36;;;;;;;0.50;0.50;;;;;;;;;;5071024;28;20175;-60
2022/02/08 03:33:03;;;;;;;0.52;0.52;;;;;;;;;;5071323;28;20183;-62
2022/02/08 03:35:29;;;;;;;0.50;0.50;;;;;;;;;;5071439;28;20189;-62
2022/02/08 03:37:59;;;;;;;0.57;0.57;;;;;;;;;;5071184;28;20258;-62
2022/02/08 03:43:13;;;;;;;0.50;0.50;;;;;;;;;;5071130;28;20198;-62
2022/02/08 03:45:39;;;;;;;0.50;0.50;;;;;;;;;;5071420;28;20262;-62
2022/02/08 03:48:06;;;;;;;0.43;0.43;;;;;;;;;;5071130;28;20248;-62
2022/02/08 03:50:32;;;;;;;0.50;0.50;;;;;;;;;;5070827;28;20170;-62
2022/02/08 03:52:58;;;;;;;0.60;0.60;;;;;;;;;;5070918;28;20290;-62
2022/02/08 03:55:24;;;;;;;0.60;0.60;;;;;;;;;;5071181;28;20587;-62
2022/02/08 03:57:50;;;;;;;0.43;0.43;;;;;;;;;;5071139;28;20412;-62
2022/02/08 04:00:17;;;;;;;0.50;0.50;;;;;;;;;;5071034;28;20225;-62
2022/02/08 04:02:48;;;;;;;0.40;0.40;;;;;;;;;;5071154;28;20504;-62
2022/02/08 04:05:18;;;;;;;0.55;0.55;;;;;;;;;;5071172;28;20171;-62
2022/02/08 04:07:52;;;;;;;0.50;0.50;;;;;;;;;;5071008;28;20688;-62
2022/02/08 04:10:24;;;;;;;0.50;0.50;;;;;;;;;;5070757;28;20210;-62
2022/02/08 04:15:43;;;;;;;0.40;0.40;;;;;;;;;;5074542;28;20526;-62
2022/02/08 04:34:29;;;;;;;0.50;0.50;;;;;;;;;;5074282;28;20172;-62
2022/02/08 04:42:23;;;;;;;0.50;0.50;;;;;;;;;;5073874;28;20196;-62
2022/02/08 04:45:03;;;;;;;0.50;0.50;;;;;;;;;;5074056;28;20210;-62
2022/02/08 04:47:35;;;;;;;0.50;0.50;;;;;;;;;;5073857;28;20163;-60
2022/02/08 04:50:01;;;;;;;0.50;0.50;;;;;;;;;;5073970;28;20175;-62
2022/02/08 04:52:28;;;;;;;0.50;0.50;;;;;;;;;;5107109;22;20230;-63
2022/02/08 04:55:47;;;;;;;0.60;0.60;;;;;;;;;;5094030;28;20167;-66
2022/02/08 05:00:21;;;;;;;0.50;0.50;;;;;;;;;;5093846;28;20166;-63
2022/02/08 05:36:14;;;;;;;0.50;0.50;;;;;;;;;;5093586;28;20203;-66
2022/02/08 05:49:03;;;;;;;0.50;0.50;;;;;;;;;;5093065;28;20599;-63
2022/02/08 05:54:14;;;;;;;0.52;0.52;;;;;;;;;;5093220;28;20186;-63
2022/02/08 05:56:40;;;;;;;0.50;0.50;;;;;;;;;;5092719;28;20198;-64
2022/02/08 05:59:07;;;;;;;0.60;0.60;;;;;;;;;;5093024;28;20549;-64
2022/02/08 06:01:34;;;;;;;0.60;0.60;;;;;;;;;;5092606;28;20429;-65
2022/02/08 06:04:00;;;;;;;0.52;0.52;;;;;;;;;;5095799;28;20203;-63
2022/02/08 06:06:28;;;;;;;0.50;0.50;;;;;;;;;;5088413;28;20172;-63
2022/02/08 06:08:54;;;;;;;0.50;0.50;;;;;;;;;;5090789;28;20172;-63
2022/02/08 06:11:22;;;;;;;0.60;0.60;;;;;;;;;;5054259;28;20190;-64
2022/02/08 06:13:51;;;;;;;0.60;0.60;;;;;;;;;;5073445;28;20175;-64
2022/02/08 06:16:19;;;;;;;0.57;0.57;;;;;;;;;;5073152;28;20203;-63
2022/02/08 06:18:45;;;;;;;0.63;0.63;;;;;;;;;;5090298;28;20199;-64
2022/02/08 06:21:11;;;;;;;0.57;0.57;;;;;;;;;;5083563;28;20176;-64
2022/02/08 06:23:37;;;;;;;0.50;0.50;;;;;;;;;;5073123;28;20226;-65
2022/02/08 06:26:03;;;;;;;0.50;0.50;;;;;;;;;;5091055;28;20178;-62
2022/02/08 06:28:29;;;;;;;0.50;0.50;;;;;;;;;;5078624;28;20174;-62
2022/02/08 06:30:55;;;;;;;0.50;0.50;;;;;;;;;;5092011;28;20246;-63
2022/02/08 06:33:21;;;;;;;0.50;0.50;;;;;;;;;;5072719;28;20477;-62
2022/02/08 06:35:48;;;;;;;0.50;0.50;;;;;;;;;;5075042;28;20936;-64
2022/02/08 06:38:16;;;;;;;0.60;0.60;;;;;;;;;;5090063;28;20583;-64
2022/02/08 06:40:44;;;;;;;0.50;0.50;;;;;;;;;;5090424;28;20175;-64
2022/02/08 06:43:10;;;;;;;0.50;0.50;;;;;;;;;;5091718;28;20561;-64
2022/02/08 06:45:36;;;;;;;0.60;0.60;;;;;;;;;;5073704;28;20166;-65
2022/02/08 06:48:04;;;;;;;0.50;0.50;;;;;;;;;;5091377;28;20918;-64
2022/02/08 06:50:30;;;;;;;0.60;0.60;;;;;;;;;;5092018;28;20657;-63
2022/02/08 06:52:56;;;;;;;0.50;0.50;;;;;;;;;;5091841;28;20206;-62
2022/02/08 06:55:25;;;;;;;0.50;0.50;;;;;;;;;;5092260;28;20197;-64
2022/02/08 06:57:58;;;;;;;0.60;0.60;;;;;;;;;;5091932;28;20181;-67
2022/02/08 07:00:31;;;;;;;0.57;0.57;;;;;;;;;;5091592;28;20485;-63
2022/02/08 07:02:56;;;;;;;0.50;0.50;;;;;;;;;;5091704;28;20210;-65
2022/02/08 07:05:22;;;;;;;0.40;0.40;;;;;;;;;;5091684;28;20522;-65
2022/02/08 07:07:49;;;;;;;0.50;0.50;;;;;;;;;;5091570;28;20174;-63
2022/02/08 07:10:15;;;;;;;0.50;0.50;;;;;;;;;;5091399;28;20411;-65
2022/02/08 07:12:42;;;;;;;0.50;0.50;;;;;;;;;;5091535;28;20186;-64
2022/02/08 07:15:13;;;;;;;0.50;0.50;;;;;;;;;;5085405;28;20409;-66
2022/02/08 07:17:39;;;;;;;0.50;0.50;;;;;;;;;;5091472;28;20258;-65
2022/02/08 07:20:05;;;;;;;0.50;0.50;;;;;;;;;;5091673;28;20171;-66
2022/02/08 07:22:31;;;;;;;0.50;0.50;;;;;;;;;;5072756;28;20190;-65
2022/02/08 07:24:58;;;;;;;0.40;0.40;;;;;;;;;;5091247;28;20198;-65
2022/02/08 07:27:24;;;;;;;0.60;0.60;;;;;;;;;;5091498;28;20175;-67
2022/02/08 07:29:52;;;;;;;0.50;0.50;;;;;;;;;;5091509;28;20179;-67
2022/02/08 07:32:26;;;;;;;0.50;0.50;;;;;;;;;;5091132;28;20188;-67
2022/02/08 07:35:00;;;;;;;0.50;0.50;;;;;;;;;;5090645;28;20261;-65
2022/02/08 07:37:48;;;;;;;0.50;0.50;;;;;;;;;;5091519;28;20176;-66
2022/02/08 07:40:25;;;;;;;0.50;0.50;;;;;;;;;;5090880;28;20195;-65
2022/02/08 07:42:51;;;;;;;0.50;0.50;;;;;;;;;;5091228;28;20684;-65
2022/02/08 07:45:17;;;;;;;0.47;0.47;;;;;;;;;;5091212;28;20219;-65
2022/02/08 07:47:43;;;;;;;0.50;0.50;;;;;;;;;;5091111;28;20549;-66
2022/02/08 07:50:09;;;;;;;0.50;0.50;;;;;;;;;;5094701;28;20398;-66
2022/02/08 07:52:35;;;;;;;0.50;0.50;;;;;;;;;;5095346;28;20971;-62
2022/02/08 07:55:01;;;;;;;0.50;0.50;;;;;;;;;;5095520;28;20197;-65
2022/02/08 07:57:27;;;;;;;0.50;0.50;;;;;;;;;;5094545;28;20413;-65
2022/02/08 07:59:53;;;;;;;0.50;0.50;;;;;;;;;;5094675;28;20905;-65
2022/02/08 08:02:19;;;;;;;0.43;0.43;;;;;;;;;;5094799;28;20826;-64
2022/02/08 08:04:45;;;;;;;0.50;0.50;;;;;;;;;;5094243;28;20476;-64
2022/02/08 08:07:11;;;;;;;0.50;0.50;;;;;;;;;;5094523;28;20405;-65
2022/02/08 08:09:40;;;;;;;0.60;0.60;;;;;;;;;;5094470;28;20437;-66
2022/02/08 08:12:09;;;;;;;0.60;0.60;;;;;;;;;;5094357;28;20424;-64
2022/02/08 08:14:35;;;;;;;0.50;0.50;;;;;;;;;;5094653;28;20200;-63
2022/02/08 08:17:35;;;;;;;0.50;0.50;;;;;;;;;;5095169;28;20213;-65
2022/02/08 08:19:50;;;;;;;0.50;0.50;;;;;;;;;;5093985;28;20205;-64
2022/02/08 08:22:19;;;;;;;0.50;0.50;;;;;;;;;;5074827;28;20204;-66
2022/02/08 08:24:45;;;;;;;0.60;0.60;;;;;;;;;;5074274;28;20753;-66
2022/02/08 08:27:12;;;;;;;0.50;0.50;;;;;;;;;;5074600;28;20616;-65
2022/02/08 08:29:38;;;;;;;0.50;0.50;;;;;;;;;;5073974;28;20180;-65
2022/02/08 08:32:05;;;;;;;0.40;0.40;;;;;;;;;;5073717;28;20194;-65
2022/02/08 08:34:31;;;;;;;0.50;0.50;;;;;;;;;;5073967;28;20226;-66
2022/02/08 08:36:57;;;;;;;0.50;0.50;;;;;;;;;;5074285;28;20594;-65
2022/02/08 08:39:28;;;;;;;0.40;0.40;;;;;;;;;;5074236;28;20185;-66
2022/02/08 08:42:14;;;;;;;0.50;0.50;;;;;;;;;;5073666;28;20674;-66
2022/02/08 08:50:04;;;;;;;0.50;0.50;;;;;;;;;;5074422;28;20398;-65
2022/02/08 08:52:39;;;;;;;0.50;0.50;;;;;;;;;;5073114;28;20218;-66
2022/02/08 08:55:05;;;;;;;0.50;0.50;;;;;;;;;;5073799;28;20657;-66
2022/02/08 08:57:31;;;;;;;0.43;0.43;;;;;;;;;;5074136;28;20645;-67
2022/02/08 08:59:57;;;;;;;0.50;0.50;;;;;;;;;;5073534;28;20236;-64
2022/02/08 09:02:23;;;;;;;0.50;0.50;;;;;;;;;;5074378;28;20487;-64
2022/02/08 09:04:52;;;;;;;0.40;0.40;;;;;;;;;;5074225;28;20849;-63
2022/02/08 09:07:18;;;;;;;0.40;0.40;;;;;;;;;;5074653;28;20278;-64
2022/02/08 09:09:47;;;;;;;0.50;0.50;;;;;;;;;;5074384;28;20589;-64
2022/02/08 09:12:25;;;;;;;0.50;0.50;;;;;;;;;;5073057;28;20212;-63
2022/02/08 09:28:20;;;;;;;0.50;0.50;;;;;;;;;;5074019;28;20178;-64
2022/02/08 09:30:51;;;;;;;0.50;0.50;;;;;;;;;;5073655;28;20193;-64
2022/02/08 09:33:17;;;;;;;0.40;0.40;;;;;;;;;;5074047;28;20201;-65
2022/02/08 09:35:44;;;;;;;0.50;0.50;;;;;;;;;;5072959;28;20190;-64
2022/02/08 09:38:10;;;;;;;0.50;0.50;;;;;;;;;;5077399;28;20174;-64
2022/02/08 09:40:36;;;;;;;0.50;0.50;;;;;;;;;;5074023;28;20182;-63
2022/02/08 09:43:03;;;;;;;0.60;0.60;;;;;;;;;;5073442;28;20453;-63
2022/02/08 09:45:32;;;;;;;0.50;0.50;;;;;;;;;;5073483;28;20631;-64
2022/02/08 09:48:06;;;;;;;0.50;0.50;;;;;;;;;;5073166;28;20504;-64
2022/02/08 09:50:34;;;;;;;0.50;0.50;;;;;;;;;;5073581;28;20216;-64
2022/02/08 09:53:01;;;;;;;0.50;0.50;;;;;;;;;;5073283;28;20627;-65
2022/02/08 09:55:36;;;;;;;0.50;0.50;;;;;;;;;;5073310;28;20187;-65
2022/02/08 09:58:02;;;;;;;0.50;0.50;;;;;;;;;;5073429;28;20171;-65
2022/02/08 10:00:28;;;;;;;0.50;0.50;;;;;;;;;;5072360;28;20193;-65
2022/02/08 10:03:04;;;;;;;0.40;0.40;;;;;;;;;;5073422;28;20939;-65
2022/02/08 10:05:38;;;;;;;0.50;0.50;;;;;;;;;;5073108;28;20417;-64
2022/02/08 10:08:07;;;;;;;0.50;0.50;;;;;;;;;;5072368;28;20261;-64
2022/02/08 10:10:33;;;;;;;0.50;0.50;;;;;;;;;;5072777;28;20220;-64
2022/02/08 10:13:13;;;;;;;0.50;0.50;;;;;;;;;;5074488;28;20194;-65
2022/02/08 10:21:42;;;;;;;0.50;0.50;;;;;;;;;;5072778;28;20542;-64
2022/02/08 10:24:10;;;;;;;0.50;0.50;;;;;;;;;;5073082;28;20203;-65
2022/02/08 10:29:39;;;;;;;0.47;0.47;;;;;;;;;;5072142;28;20175;-65
2022/02/08 10:37:39;;;;;;;0.40;0.40;;;;;;;;;;5071633;28;20182;-65
2022/02/08 10:40:10;;;;;;;0.40;0.40;;;;;;;;;;5071903;28;20173;-63
2022/02/08 10:42:36;;;;;;;0.50;0.50;;;;;;;;;;5071528;28;20339;-64
2022/02/08 10:45:04;;;;;;;0.50;0.50;;;;;;;;;;5071320;28;20638;-64
2022/02/08 10:47:32;;;;;;;0.50;0.50;;;;;;;;;;5072106;28;20622;-65
2022/02/08 10:49:59;;;;;;;0.40;0.40;;;;;;;;;;5071553;28;20163;-65
2022/02/08 10:52:27;;;;;;;0.50;0.50;;;;;;;;;;5107372;23;20254;-65
2022/02/08 10:54:53;;;;;;;0.40;0.40;;;;;;;;;;5070809;28;20174;-65
2022/02/08 10:57:28;;;;;;;0.40;0.40;;;;;;;;;;5071647;28;20179;-64
2022/02/08 11:00:00;;;;;;;0.40;0.40;;;;;;;;;;5071611;28;20519;-64
2022/02/08 11:02:32;;;;;;;0.40;0.40;;;;;;;;;;5062609;28;20245;-65
2022/02/08 11:05:15;;;;;;;0.40;0.40;;;;;;;;;;5051661;28;20249;-65
2022/02/08 11:07:58;;;;;;;0.30;0.30;;;;;;;;;;5051646;28;20175;-65
2022/02/08 11:10:58;;;;;;;0.40;0.40;;;;;;;;;;5051160;28;20259;-65
2022/02/08 11:16:08;;;;;;;0.40;0.40;;;;;;;;;;5051864;28;20410;-65
2022/02/08 11:24:00;;;;;;;0.30;0.30;;;;;;;;;;5054485;28;20916;-65
2022/02/08 11:26:32;;;;;;;0.40;0.40;;;;;;;;;;5055340;28;20786;-65
2022/02/08 11:29:14;;;;;;;0.40;0.40;;;;;;;;;;5055152;28;20417;-64
2022/02/08 11:31:47;;;;;;;0.40;0.40;;;;;;;;;;5055495;28;20392;-64
2022/02/08 11:52:33;;;;;;;0.50;0.50;;;;;;;;;;5055024;28;20813;-65
2022/02/08 12:00:20;;;;;;;0.40;0.40;;;;;;;;;;5055871;28;20172;-64
2022/02/08 12:02:50;;;;;;;0.40;0.40;;;;;;;;;;5054550;28;20207;-66
2022/02/08 12:07:47;;;;;;;0.40;0.40;;;;;;;;;;5055336;28;20187;-65
2022/02/08 12:10:40;;;;;;;0.40;0.40;;;;;;;;;;5054690;28;20898;-65
2022/02/08 12:13:40;;;;;;;0.40;0.40;;;;;;;;;;5054751;28;20190;-65
2022/02/08 13:02:44;;;;;;;0.40;0.40;;;;;;;;;;5053980;28;20421;-64
2022/02/08 13:20:02;;;;;;;0.50;0.50;;;;;;;;;;5053429;28;20225;-66
2022/02/08 14:06:54;;;;;;;0.40;0.40;;;;;;;;;;5072182;28;20624;-66
2022/02/08 14:12:08;;;;;;;0.50;0.50;;;;;;;;;;5071749;28;20543;-65
2022/02/08 14:20:04;;;;;;;0.40;0.40;;;;;;;;;;5052902;28;20599;-65
2022/02/08 14:22:53;;;;;;;0.50;0.50;;;;;;;;;;5051669;28;20207;-64
2022/02/08 14:25:33;;;;;;;0.40;0.40;;;;;;;;;;5051810;28;20631;-64
2022/02/08 14:30:59;;;;;;;0.50;0.50;;;;;;;;;;5051900;28;20187;-64
2022/02/08 14:37:18;;;;;;;0.50;0.50;;;;;;;;;;5052790;28;20548;-65
2022/02/08 15:08:38;;;;;;;0.50;0.50;;;;;;;;;;5052073;28;20271;-64
2022/02/08 15:11:07;;;;;;;0.40;0.40;;;;;;;;;;5051492;28;20463;-64
2022/02/08 15:13:35;;;;;;;0.40;0.40;;;;;;;;;;5052281;28;20200;-63
2022/02/08 15:16:23;;;;;;;0.47;0.47;;;;;;;;;;5052420;28;20176;-63
2022/02/08 15:18:49;;;;;;;0.40;0.40;;;;;;;;;;5052585;28;20249;-63
2022/02/08 15:21:21;;;;;;;0.40;0.40;;;;;;;;;;5052318;28;20579;-64
2022/02/08 15:23:49;;;;;;;0.50;0.50;;;;;;;;;;5052394;28;20450;-64
2022/02/08 15:26:15;;;;;;;0.40;0.40;;;;;;;;;;5052091;28;20218;-63
2022/02/08 15:28:41;;;;;;;0.50;0.50;;;;;;;;;;5034417;28;20176;-65
2022/02/08 15:31:07;;;;;;;0.43;0.43;;;;;;;;;;5051883;28;20897;-66
2022/02/08 15:33:33;;;;;;;0.40;0.40;;;;;;;;;;5033517;28;20462;-62
2022/02/08 15:35:59;;;;;;;0.50;0.50;;;;;;;;;;5051932;28;20188;-64
2022/02/08 15:38:31;;;;;;;0.40;0.40;;;;;;;;;;5052415;28;20417;-66
2022/02/08 15:40:57;;;;;;;0.40;0.40;;;;;;;;;;5051684;28;20176;-66
2022/02/08 15:43:24;;;;;;;0.50;0.50;;;;;;;;;;5051367;28;20278;-64
2022/02/08 15:45:58;;;;;;;0.40;0.40;;;;;;;;;;5032796;28;20229;-64
2022/02/08 15:48:24;;;;;;;0.40;0.40;;;;;;;;;;5050807;28;20623;-65
2022/02/08 15:56:21;;;;;;;0.50;0.50;;;;;;;;;;5050656;28;20172;-66
2022/02/08 16:01:15;;;;;;;0.40;0.40;;;;;;;;;;5050480;28;20168;-65
2022/02/08 16:06:55;;;;;;;0.50;0.50;;;;;;;;;;5050728;28;20257;-66
2022/02/08 16:11:56;;;;;;;0.50;0.50;;;;;;;;;;5054118;28;20540;-65
2022/02/08 16:19:48;;;;;;;0.50;0.50;;;;;;;;;;5053894;28;20198;-66
2022/02/08 16:24:54;;;;;;;0.50;0.50;;;;;;;;;;5054033;28;20254;-66
2022/02/08 16:54:41;;;;;;;0.40;0.40;;;;;;;;;;5054006;28;20306;-66
2022/02/08 16:57:24;;;;;;;0.40;0.40;;;;;;;;;;5053788;28;20536;-66
2022/02/08 16:59:50;;;;;;;0.50;0.50;;;;;;;;;;5053808;28;20546;-66
2022/02/08 17:02:22;;;;;;;0.40;0.40;;;;;;;;;;5052840;28;20271;-67
2022/02/08 17:04:48;;;;;;;0.50;0.50;;;;;;;;;;5053551;28;20457;-67
2022/02/08 17:07:14;;;;;;;0.50;0.50;;;;;;;;;;5053691;28;20171;-67
2022/02/08 17:09:47;;;;;;;0.50;0.50;;;;;;;;;;5053699;28;20395;-67
2022/02/08 17:18:03;;;;;;;0.50;0.50;;;;;;;;;;5053490;28;20594;-67
2022/02/08 17:34:44;;;;;;;0.40;0.40;;;;;;;;;;5053554;28;20256;-65
2022/02/08 17:47:47;;;;;;;0.50;0.50;;;;;;;;;;5052315;28;20175;-66
2022/02/08 17:50:15;;;;;;;0.50;0.50;;;;;;;;;;5051955;28;20425;-65
2022/02/08 17:52:41;;;;;;;0.50;0.50;;;;;;;;;;5051458;28;20631;-67
2022/02/08 17:55:08;;;;;;;0.40;0.40;;;;;;;;;;5052608;28;20496;-67
2022/02/08 17:57:35;;;;;;;0.50;0.50;;;;;;;;;;5052416;28;20172;-66
2022/02/08 18:00:01;;;;;;;0.50;0.50;;;;;;;;;;5059035;28;20182;-64
2022/02/08 18:02:27;;;;;;;0.50;0.50;;;;;;;;;;5071465;28;20258;-66
2022/02/08 18:04:53;;;;;;;0.50;0.50;;;;;;;;;;5072337;28;20277;-66
2022/02/08 18:07:24;;;;;;;0.50;0.50;;;;;;;;;;5054206;28;20435;-66
2022/02/08 18:09:51;;;;;;;0.50;0.50;;;;;;;;;;5071968;28;20168;-65
2022/02/08 18:12:22;;;;;;;0.50;0.50;;;;;;;;;;5073800;28;20218;-65
2022/02/08 18:14:54;;;;;;;0.40;0.40;;;;;;;;;;5075172;28;20174;-65
2022/02/08 18:17:26;;;;;;;0.45;0.45;;;;;;;;;;5072722;28;20646;-65
2022/02/08 18:20:02;;;;;;;0.50;0.50;;;;;;;;;;5072567;28;20177;-64
2022/02/08 18:25:40;;;;;;;0.43;0.43;;;;;;;;;;5040733;28;20226;-66
2022/02/08 19:03:50;;;;;;;0.40;0.40;;;;;;;;;;5068264;28;20753;-64
2022/02/08 19:12:17;;;;;;;0.40;0.40;;;;;;;;;;5079081;28;20412;-64
2022/02/08 19:21:46;;;;;;;0.43;0.43;;;;;;;;;;5076666;28;21005;-64
2022/02/08 19:24:18;;;;;;;0.40;0.40;;;;;;;;;;5069661;28;20457;-66
2022/02/08 19:26:45;;;;;;;0.50;0.50;;;;;;;;;;5071284;28;20203;-66
2022/02/08 19:29:14;;;;;;;0.47;0.47;;;;;;;;;;5052923;28;20175;-64
2022/02/08 19:31:40;;;;;;;0.50;0.50;;;;;;;;;;5052692;28;20172;-65
2022/02/08 19:34:06;;;;;;;0.50;0.50;;;;;;;;;;5071501;28;20171;-65
2022/02/08 19:36:32;;;;;;;0.50;0.50;;;;;;;;;;5065545;28;20452;-67
2022/02/08 19:39:02;;;;;;;0.50;0.50;;;;;;;;;;5070181;28;20409;-62
2022/02/08 19:41:28;;;;;;;0.50;0.50;;;;;;;;;;5070314;28;20837;-65
2022/02/08 19:43:55;;;;;;;0.50;0.50;;;;;;;;;;5070811;28;20230;-67
2022/02/08 19:46:21;;;;;;;0.50;0.50;;;;;;;;;;5075285;28;20197;-66
2022/02/08 19:48:47;;;;;;;0.50;0.50;;;;;;;;;;5075245;28;20171;-65
2022/02/08 19:51:13;;;;;;;0.50;0.50;;;;;;;;;;5074156;28;20599;-66
2022/02/08 19:53:41;;;;;;;0.50;0.50;;;;;;;;;;5074816;28;20217;-65
2022/02/08 19:58:42;;;;;;;0.50;0.50;;;;;;;;;;5074968;28;20183;-65
2022/02/08 20:01:16;;;;;;;0.40;0.40;;;;;;;;;;5074196;28;20179;-65
2022/02/08 20:04:27;;;;;;;0.40;0.40;;;;;;;;;;5074136;28;20735;-65
2022/02/08 20:06:28;;;;;;;0.50;0.50;;;;;;;;;;5056717;28;20186;-66
2022/02/08 20:08:54;;;;;;;0.60;0.60;;;;;;;;;;5056748;28;20175;-65
2022/02/08 20:11:22;;;;;;;0.40;0.40;;;;;;;;;;5065440;28;20302;-66
2022/02/08 20:13:52;;;;;;;0.40;0.40;;;;;;;;;;5054061;28;20172;-64
2022/02/08 20:16:19;;;;;;;0.50;0.50;;;;;;;;;;5054169;28;20183;-66
2022/02/08 20:18:47;;;;;;;0.40;0.40;;;;;;;;;;5055889;28;20176;-65
2022/02/08 20:21:13;;;;;;;0.50;0.50;;;;;;;;;;5073581;28;20523;-65
2022/02/08 20:23:39;;;;;;;0.50;0.50;;;;;;;;;;5073645;28;20195;-66
2022/02/08 20:26:06;;;;;;;0.40;0.40;;;;;;;;;;5074223;28;20171;-64
2022/02/08 20:28:53;;;;;;;0.50;0.50;;;;;;;;;;5073563;28;20408;-64
2022/02/08 20:31:20;;;;;;;0.50;0.50;;;;;;;;;;5071417;28;20167;-65
2022/02/08 20:33:46;;;;;;;0.50;0.50;;;;;;;;;;5073719;28;20674;-63
2022/02/08 20:36:13;;;;;;;0.40;0.40;;;;;;;;;;5073734;28;20182;-63
2022/02/08 20:38:39;;;;;;;0.50;0.50;;;;;;;;;;5055861;28;20179;-64
2022/02/08 20:41:05;;;;;;;0.50;0.50;;;;;;;;;;5073602;28;20180;-64
2022/02/08 20:43:35;;;;;;;0.50;0.50;;;;;;;;;;5073520;28;20263;-61
2022/02/08 20:46:03;;;;;;;0.50;0.50;;;;;;;;;;5073344;28;20696;-67
2022/02/08 20:48:29;;;;;;;0.50;0.50;;;;;;;;;;5073879;28;20195;-65
2022/02/08 20:51:00;;;;;;;0.40;0.40;;;;;;;;;;5068218;28;20941;-63
2022/02/08 20:56:14;;;;;;;0.50;0.50;;;;;;;;;;5071063;28;20660;-65
2022/02/08 21:01:25;;;;;;;0.45;0.45;;;;;;;;;;5072532;28;20182;-64
2022/02/08 21:04:02;;;;;;;0.50;0.50;;;;;;;;;;5073172;28;20565;-65
2022/02/08 21:06:29;;;;;;;0.50;0.50;;;;;;;;;;5073676;28;20459;-65
2022/02/08 21:08:59;;;;;;;0.50;0.50;;;;;;;;;;5070220;28;20174;-63
2022/02/08 21:11:37;;;;;;;0.50;0.50;;;;;;;;;;5073485;28;20225;-64
2022/02/08 21:14:07;;;;;;;0.50;0.50;;;;;;;;;;5071628;28;20178;-65
2022/02/08 21:16:39;;;;;;;0.50;0.50;;;;;;;;;;5073615;28;20542;-66
2022/02/08 21:19:05;;;;;;;0.50;0.50;;;;;;;;;;5073754;28;20228;-61
2022/02/08 21:21:31;;;;;;;0.50;0.50;;;;;;;;;;5072800;28;20630;-65
2022/02/08 21:23:57;;;;;;;0.50;0.50;;;;;;;;;;5073420;28;20461;-65
2022/02/08 21:26:28;;;;;;;0.50;0.50;;;;;;;;;;5073104;28;20313;-65
2022/02/08 21:48:14;;;;;;;0.47;0.47;;;;;;;;;;5070555;28;20233;-63
2022/02/08 21:51:20;;;;;;;0.50;0.50;;;;;;;;;;5069942;28;20174;-67
2022/02/08 21:53:34;;;;;;;0.50;0.50;;;;;;;;;;5056977;28;20216;-64
2022/02/08 21:56:01;;;;;;;0.50;0.50;;;;;;;;;;5062541;28;20178;-64
2022/02/08 21:58:29;;;;;;;0.50;0.50;;;;;;;;;;5062863;28;20179;-63
2022/02/08 22:00:56;;;;;;;0.50;0.50;;;;;;;;;;5060843;28;20651;-63
2022/02/08 22:03:22;;;;;;;0.50;0.50;;;;;;;;;;5071861;28;20207;-64
2022/02/08 22:05:48;;;;;;;0.50;0.50;;;;;;;;;;5072034;28;20170;-64
2022/02/08 22:21:56;;;;;;;0.50;0.50;;;;;;;;;;5072984;28;20214;-64
2022/02/08 22:24:26;;;;;;;0.50;0.50;;;;;;;;;;5064562;28;20241;-64
2022/02/08 22:27:28;;;;;;;0.50;0.50;;;;;;;;;;5043938;28;20209;-64
2022/02/08 22:30:18;;;;;;;0.40;0.40;;;;;;;;;;5070963;28;20170;-65
2022/02/08 22:32:46;;;;;;;0.60;0.60;;;;;;;;;;5070087;28;20187;-65
2022/02/08 22:35:27;;;;;;;0.50;0.50;;;;;;;;;;5071462;28;20197;-65
2022/02/08 22:38:06;;;;;;;0.50;0.50;;;;;;;;;;5070930;28;20835;-65
2022/02/08 22:40:34;;;;;;;0.50;0.50;;;;;;;;;;5052977;28;20598;-65
2022/02/08 22:43:22;;;;;;;0.50;0.50;;;;;;;;;;5071338;28;20196;-65
2022/02/08 22:45:48;;;;;;;0.50;0.50;;;;;;;;;;5070570;28;20171;-61
2022/02/08 22:48:14;;;;;;;0.50;0.50;;;;;;;;;;5071049;28;20186;-65
2022/02/08 22:50:40;;;;;;;0.43;0.43;;;;;;;;;;5071040;28;20194;-65
2022/02/08 22:53:06;;;;;;;0.43;0.43;;;;;;;;;;5070636;28;20530;-66
2022/02/08 22:55:33;;;;;;;0.60;0.60;;;;;;;;;;5070997;28;20401;-65
2022/02/08 22:58:09;;;;;;;0.50;0.50;;;;;;;;;;5071230;28;20635;-63
2022/02/08 23:00:36;;;;;;;0.50;0.50;;;;;;;;;;5070391;28;20181;-64
2022/02/08 23:03:05;;;;;;;0.50;0.50;;;;;;;;;;5070740;28;20558;-64
2022/02/08 23:05:32;;;;;;;0.50;0.50;;;;;;;;;;5070778;28;20202;-65
2022/02/08 23:07:59;;;;;;;0.50;0.50;;;;;;;;;;5069328;28;20677;-63
2022/02/08 23:10:34;;;;;;;0.50;0.50;;;;;;;;;;5070587;28;20174;-63
2022/02/08 23:13:15;;;;;;;0.47;0.47;;;;;;;;;;5068133;28;20190;-65
2022/02/08 23:37:22;;;;;;;0.60;0.60;;;;;;;;;;5073495;28;20218;-63
2022/02/08 23:39:48;;;;;;;0.60;0.60;;;;;;;;;;5076034;28;20555;-60
2022/02/08 23:42:17;;;;;;;0.50;0.50;;;;;;;;;;5074572;28;20457;-63